createdAt,value
2018-01-10T00:00:57.891Z,3.43
2018-01-10T00:01:57.864Z,3.51
2018-01-10T00:02:57.850Z,3.42
2018-01-10T00:03:57.837Z,3.45
2018-01-10T00:04:57.822Z,3.47
2018-01-10T00:05:57.816Z,3.48
2018-01-10T00:06:57.796Z,3.50
2018-01-10T00:07:57.781Z,3.42
2018-01-10T00:08:57.771Z,3.43
2018-01-10T00:09:57.755Z,3.50
2018-01-10T00:10:57.743Z,3.40
2018-01-10T00:11:57.732Z,3.47
2018-01-10T00:12:57.716Z,3.43
2018-01-10T00:13:57.704Z,3.42
2018-01-10T00:14:57.691Z,3.43
2018-01-10T00:15:57.679Z,3.45
2018-01-10T00:16:57.668Z,3.47
2018-01-10T00:17:57.649Z,3.42
2018-01-10T00:18:57.633Z,3.40
2018-01-10T00:19:57.617Z,3.40
2018-01-10T00:20:57.616Z,3.32
2018-01-10T00:21:57.600Z,3.33
2018-01-10T00:22:57.585Z,3.28
2018-01-10T00:23:57.564Z,3.36
2018-01-10T00:24:57.554Z,3.40
2018-01-10T00:25:57.540Z,3.42
2018-01-10T00:26:57.530Z,3.43
2018-01-10T00:27:57.517Z,3.42
2018-01-10T00:28:57.500Z,3.47
2018-01-10T00:29:57.490Z,3.42
2018-01-10T00:30:57.471Z,3.45
2018-01-10T00:31:57.467Z,3.36
2018-01-10T00:32:57.445Z,3.40
2018-01-10T00:33:57.438Z,3.43
2018-01-10T00:34:57.419Z,3.32
2018-01-10T00:35:57.403Z,3.36
2018-01-10T00:36:57.391Z,3.20
2018-01-10T00:37:57.378Z,3.17
2018-01-10T00:38:57.370Z,3.21
2018-01-10T00:39:57.346Z,3.28
2018-01-10T00:40:57.337Z,3.18
2018-01-10T00:41:57.329Z,3.14
2018-01-10T00:42:57.315Z,3.29
2018-01-10T00:43:57.297Z,3.17
2018-01-10T00:44:57.282Z,3.17
2018-01-10T00:45:57.270Z,3.20
2018-01-10T00:46:57.264Z,3.10
2018-01-10T00:47:57.243Z,3.06
2018-01-10T00:48:57.229Z,3.10
2018-01-10T00:49:57.215Z,3.00
2018-01-10T00:50:57.202Z,3.02
2018-01-10T00:51:57.188Z,2.99
2018-01-10T00:52:57.177Z,2.99
2018-01-10T00:53:57.157Z,2.97
2018-01-10T00:54:57.146Z,3.06
2018-01-10T00:55:57.135Z,3.10
2018-01-10T00:56:57.120Z,3.03
2018-01-10T00:57:57.108Z,3.06
2018-01-10T00:58:57.097Z,3.03
2018-01-10T00:59:57.080Z,3.17
2018-01-10T01:00:57.071Z,3.08
2018-01-10T01:01:57.053Z,3.06
2018-01-10T01:02:57.041Z,3.06
2018-01-10T01:03:57.025Z,3.17
2018-01-10T01:04:57.011Z,3.05
2018-01-10T01:05:57.000Z,3.08
2018-01-10T01:06:56.985Z,3.18
2018-01-10T01:07:56.971Z,3.10
2018-01-10T01:08:56.958Z,3.13
2018-01-10T01:09:56.943Z,3.15
2018-01-10T01:10:56.936Z,3.15
2018-01-10T01:11:56.918Z,3.20
2018-01-10T01:12:56.903Z,3.18
2018-01-10T01:13:56.886Z,3.10
2018-01-10T01:14:56.874Z,3.05
2018-01-10T01:15:56.865Z,3.08
2018-01-10T01:16:56.844Z,3.11
2018-01-10T01:17:56.834Z,3.13
2018-01-10T01:18:56.822Z,3.10
2018-01-10T01:19:56.802Z,3.20
2018-01-10T01:20:56.797Z,3.15
2018-01-10T01:21:56.780Z,3.21
2018-01-10T01:22:56.769Z,3.31
2018-01-10T01:23:56.751Z,3.31
2018-01-10T01:24:56.740Z,3.36
2018-01-10T01:25:56.728Z,3.47
2018-01-10T01:26:56.710Z,3.42
2018-01-10T01:27:56.697Z,3.43
2018-01-10T01:28:56.684Z,3.47
2018-01-10T01:29:56.671Z,3.40
2018-01-10T01:30:56.654Z,3.40
2018-01-10T01:31:56.650Z,3.43
2018-01-10T01:32:56.626Z,3.43
2018-01-10T01:33:56.617Z,3.48
2018-01-10T01:34:56.602Z,3.43
2018-01-10T01:35:56.584Z,3.48
2018-01-10T01:36:56.570Z,3.40
2018-01-10T01:37:56.558Z,3.39
2018-01-10T01:38:56.546Z,3.45
2018-01-10T01:39:56.532Z,3.47
2018-01-10T01:40:56.520Z,3.42
2018-01-10T01:41:56.504Z,3.47
2018-01-10T01:42:56.487Z,3.45
2018-01-10T01:43:56.473Z,3.48
2018-01-10T01:44:56.461Z,3.50
2018-01-10T01:45:56.451Z,3.45
2018-01-10T01:46:56.440Z,3.43
2018-01-10T01:47:56.424Z,3.43
2018-01-10T01:48:56.408Z,3.42
2018-01-10T01:49:56.390Z,3.51
2018-01-10T01:50:56.381Z,3.48
2018-01-10T01:51:56.366Z,3.50
2018-01-10T01:52:56.354Z,3.55
2018-01-10T01:53:56.340Z,3.61
2018-01-10T01:54:56.324Z,3.57
2018-01-10T01:55:56.311Z,3.62
2018-01-10T01:56:56.301Z,3.47
2018-01-10T01:57:56.288Z,3.57
2018-01-10T01:58:56.270Z,3.43
2018-01-10T01:59:56.254Z,3.54
2018-01-10T02:00:56.243Z,3.55
2018-01-10T02:01:56.230Z,3.47
2018-01-10T02:02:56.217Z,3.43
2018-01-10T02:03:56.201Z,3.43
2018-01-10T02:04:56.190Z,3.47
2018-01-10T02:05:56.173Z,3.45
2018-01-10T02:06:56.162Z,3.47
2018-01-10T02:07:56.147Z,3.36
2018-01-10T02:08:56.133Z,3.26
2018-01-10T02:09:56.123Z,3.23
2018-01-10T02:10:56.101Z,3.20
2018-01-10T02:11:56.092Z,3.26
2018-01-10T02:12:56.078Z,3.23
2018-01-10T02:13:56.060Z,3.24
2018-01-10T02:14:56.056Z,3.18
2018-01-10T02:15:56.037Z,3.18
2018-01-10T02:16:56.023Z,3.21
2018-01-10T02:17:56.011Z,3.17
2018-01-10T02:18:55.993Z,3.14
2018-01-10T02:19:55.990Z,3.17
2018-01-10T02:20:55.968Z,3.11
2018-01-10T02:21:55.950Z,3.08
2018-01-10T02:22:55.943Z,3.08
2018-01-10T02:23:55.921Z,3.13
2018-01-10T02:24:55.909Z,3.08
2018-01-10T02:25:55.899Z,3.08
2018-01-10T02:26:55.887Z,3.13
2018-01-10T02:27:55.872Z,3.10
2018-01-10T02:28:55.858Z,3.23
2018-01-10T02:29:55.846Z,3.06
2018-01-10T02:30:55.835Z,3.14
2018-01-10T02:31:55.814Z,3.26
2018-01-10T02:32:55.804Z,3.24
2018-01-10T02:33:55.786Z,3.23
2018-01-10T02:34:55.774Z,3.23
2018-01-10T02:35:55.760Z,3.23
2018-01-10T02:36:55.744Z,3.24
2018-01-10T02:37:55.733Z,3.15
2018-01-10T02:38:55.716Z,3.23
2018-01-10T02:39:55.704Z,3.17
2018-01-10T02:40:55.689Z,3.26
2018-01-10T02:41:55.676Z,3.26
2018-01-10T02:42:55.668Z,3.23
2018-01-10T02:43:55.651Z,3.21
2018-01-10T02:44:55.638Z,3.23
2018-01-10T02:45:55.623Z,3.18
2018-01-10T02:46:55.607Z,3.24
2018-01-10T02:47:55.592Z,3.20
2018-01-10T02:48:55.578Z,3.21
2018-01-10T02:49:55.568Z,3.18
2018-01-10T02:50:55.554Z,3.20
2018-01-10T02:51:55.546Z,3.31
2018-01-10T02:52:55.525Z,3.32
2018-01-10T02:53:55.509Z,3.29
2018-01-10T02:54:55.498Z,3.29
2018-01-10T02:55:55.484Z,3.33
2018-01-10T02:56:55.469Z,3.32
2018-01-10T02:57:55.452Z,3.28
2018-01-10T02:58:55.445Z,3.29
2018-01-10T02:59:55.429Z,3.21
2018-01-10T03:00:55.414Z,3.35
2018-01-10T03:01:55.402Z,3.31
2018-01-10T03:02:55.386Z,3.24
2018-01-10T03:03:55.373Z,3.33
2018-01-10T03:04:55.361Z,3.28
2018-01-10T03:05:55.355Z,3.21
2018-01-10T03:06:55.333Z,3.24
2018-01-10T03:07:55.319Z,3.35
2018-01-10T03:08:55.308Z,3.26
2018-01-10T03:09:55.294Z,3.20
2018-01-10T03:10:55.279Z,3.28
2018-01-10T03:11:55.265Z,3.24
2018-01-10T03:12:55.252Z,3.20
2018-01-10T03:13:55.233Z,3.23
2018-01-10T03:14:55.220Z,3.20
2018-01-10T03:15:55.208Z,3.28
2018-01-10T03:16:55.193Z,3.17
2018-01-10T03:17:55.180Z,3.15
2018-01-10T03:18:55.173Z,3.20
2018-01-10T03:19:55.151Z,3.20
2018-01-10T03:20:55.143Z,3.23
2018-01-10T03:21:55.129Z,3.20
2018-01-10T03:22:55.112Z,3.20
2018-01-10T03:23:55.098Z,3.23
2018-01-10T03:24:55.086Z,3.20
2018-01-10T03:25:55.067Z,3.29
2018-01-10T03:26:55.051Z,3.20
2018-01-10T03:27:55.036Z,3.26
2018-01-10T03:28:55.028Z,3.29
2018-01-10T03:29:55.016Z,3.33
2018-01-10T03:30:55.005Z,3.26
2018-01-10T03:31:54.986Z,3.28
2018-01-10T03:32:54.975Z,3.28
2018-01-10T03:33:54.960Z,3.24
2018-01-10T03:34:54.946Z,3.26
2018-01-10T03:35:54.928Z,3.20
2018-01-10T03:36:54.910Z,3.26
2018-01-10T03:37:54.902Z,3.24
2018-01-10T03:38:54.888Z,3.31
2018-01-10T03:39:54.871Z,3.29
2018-01-10T03:40:54.863Z,3.18
2018-01-10T03:41:54.843Z,3.21
2018-01-10T03:42:54.830Z,3.24
2018-01-10T03:43:54.816Z,3.26
2018-01-10T03:44:54.805Z,3.17
2018-01-10T03:45:54.792Z,3.14
2018-01-10T03:46:54.775Z,3.18
2018-01-10T03:47:54.769Z,3.20
2018-01-10T03:48:54.750Z,3.17
2018-01-10T03:49:54.735Z,3.18
2018-01-10T03:50:54.722Z,3.14
2018-01-10T03:51:54.706Z,3.14
2018-01-10T03:52:54.698Z,3.18
2018-01-10T03:53:54.680Z,3.15
2018-01-10T03:54:54.663Z,3.17
2018-01-10T03:55:54.655Z,3.24
2018-01-10T03:56:54.636Z,3.18
2018-01-10T03:57:54.621Z,3.17
2018-01-10T03:58:54.607Z,3.18
2018-01-10T03:59:54.596Z,3.23
2018-01-10T04:00:54.584Z,3.28
2018-01-10T04:01:54.567Z,3.21
2018-01-10T04:02:54.563Z,3.23
2018-01-10T04:03:54.540Z,3.26
2018-01-10T04:04:54.543Z,3.17
2018-01-10T04:05:54.516Z,3.15
2018-01-10T04:06:54.498Z,3.18
2018-01-10T04:07:54.484Z,3.24
2018-01-10T04:08:54.468Z,3.20
2018-01-10T04:09:54.456Z,3.20
2018-01-10T04:10:54.443Z,3.18
2018-01-10T04:11:54.430Z,3.24
2018-01-10T04:12:54.413Z,3.26
2018-01-10T04:13:54.406Z,3.21
2018-01-10T04:14:54.390Z,3.21
2018-01-10T04:15:54.369Z,3.18
2018-01-10T04:16:54.359Z,3.21
2018-01-10T04:17:54.349Z,3.28
2018-01-10T04:18:54.333Z,3.23
2018-01-10T04:19:54.317Z,3.20
2018-01-10T04:20:54.306Z,3.20
2018-01-10T04:21:54.292Z,3.20
2018-01-10T04:22:54.277Z,3.31
2018-01-10T04:23:54.260Z,3.28
2018-01-10T04:24:54.245Z,3.24
2018-01-10T04:25:54.234Z,3.23
2018-01-10T04:26:54.219Z,3.24
2018-01-10T04:27:54.205Z,3.17
2018-01-10T04:28:54.191Z,3.15
2018-01-10T04:29:54.176Z,3.11
2018-01-10T04:30:54.164Z,3.15
2018-01-10T04:31:54.155Z,3.20
2018-01-10T04:32:54.137Z,3.17
2018-01-10T04:33:54.123Z,3.06
2018-01-10T04:34:54.113Z,3.05
2018-01-10T04:35:54.091Z,3.13
2018-01-10T04:36:54.078Z,3.05
2018-01-10T04:37:54.065Z,3.08
2018-01-10T04:38:54.055Z,3.11
2018-01-10T04:39:54.041Z,3.10
2018-01-10T04:40:54.031Z,3.05
2018-01-10T04:41:54.007Z,3.00
2018-01-10T04:42:53.995Z,2.96
2018-01-10T04:43:53.988Z,3.02
2018-01-10T04:44:53.970Z,3.02
2018-01-10T04:45:53.953Z,3.00
2018-01-10T04:46:53.992Z,2.97
2018-01-10T04:47:53.924Z,3.03
2018-01-10T04:48:53.913Z,3.05
2018-01-10T04:49:53.898Z,3.05
2018-01-10T04:50:53.878Z,2.99
2018-01-10T04:51:53.867Z,3.02
2018-01-10T04:52:53.857Z,3.00
2018-01-10T04:53:53.844Z,3.08
2018-01-10T04:54:53.865Z,3.00
2018-01-10T04:55:53.810Z,3.06
2018-01-10T04:56:53.801Z,3.08
2018-01-10T04:57:53.781Z,3.03
2018-01-10T04:58:53.775Z,3.11
2018-01-10T04:59:53.759Z,2.99
2018-01-10T05:00:53.741Z,3.08
2018-01-10T05:01:53.727Z,3.02
2018-01-10T05:02:53.715Z,3.05
2018-01-10T05:03:53.702Z,3.03
2018-01-10T05:04:53.684Z,3.02
2018-01-10T05:05:53.676Z,2.97
2018-01-10T05:06:53.660Z,3.03
2018-01-10T05:07:53.645Z,2.95
2018-01-10T05:08:53.631Z,2.97
2018-01-10T05:09:53.618Z,3.05
2018-01-10T05:10:53.602Z,2.99
2018-01-10T05:11:53.589Z,2.99
2018-01-10T05:12:53.576Z,3.03
2018-01-10T05:13:53.570Z,3.08
2018-01-10T05:14:53.547Z,3.08
2018-01-10T05:15:53.532Z,3.06
2018-01-10T05:16:53.518Z,3.10
2018-01-10T05:17:53.510Z,3.13
2018-01-10T05:18:53.484Z,3.08
2018-01-10T05:19:53.471Z,3.08
2018-01-10T05:20:53.463Z,3.08
2018-01-10T05:21:53.451Z,3.05
2018-01-10T05:22:53.435Z,3.08
2018-01-10T05:23:53.417Z,3.00
2018-01-10T05:24:53.404Z,3.13
2018-01-10T05:25:53.390Z,3.13
2018-01-10T05:26:53.378Z,3.15
2018-01-10T05:27:53.363Z,3.10
2018-01-10T05:28:53.351Z,3.02
2018-01-10T05:29:53.334Z,3.00
2018-01-10T05:30:53.324Z,3.08
2018-01-10T05:31:53.307Z,3.03
2018-01-10T05:32:53.292Z,3.00
2018-01-10T05:33:53.279Z,3.00
2018-01-10T05:34:53.272Z,2.97
2018-01-10T05:35:53.255Z,3.03
2018-01-10T05:36:53.235Z,3.02
2018-01-10T05:37:53.221Z,3.00
2018-01-10T05:38:53.210Z,3.00
2018-01-10T05:39:53.196Z,2.99
2018-01-10T05:40:53.180Z,3.02
2018-01-10T05:41:53.195Z,3.00
2018-01-10T05:42:53.155Z,3.00
2018-01-10T05:43:53.134Z,3.02
2018-01-10T05:44:53.127Z,2.95
2018-01-10T05:45:53.109Z,3.00
2018-01-10T05:46:53.097Z,2.99
2018-01-10T05:47:53.082Z,2.97
2018-01-10T05:48:53.069Z,2.95
2018-01-10T05:49:53.055Z,3.05
2018-01-10T05:50:53.042Z,3.02
2018-01-10T05:51:53.028Z,2.97
2018-01-10T05:52:53.011Z,2.99
2018-01-10T05:53:53.006Z,2.97
2018-01-10T05:54:52.986Z,2.95
2018-01-10T05:55:52.968Z,3.00
2018-01-10T05:56:52.955Z,2.90
2018-01-10T05:57:52.940Z,2.85
2018-01-10T05:58:52.931Z,2.84
2018-01-10T05:59:52.913Z,2.85
2018-01-10T06:00:52.900Z,2.82
2018-01-10T06:01:52.945Z,2.90
2018-01-10T06:02:52.864Z,2.93
2018-01-10T06:03:52.856Z,2.85
2018-01-10T06:04:52.843Z,2.95
2018-01-10T06:05:52.829Z,2.95
2018-01-10T06:06:52.813Z,2.93
2018-01-10T06:07:52.800Z,2.96
2018-01-10T06:08:52.785Z,3.03
2018-01-10T06:09:52.774Z,2.97
2018-01-10T06:10:52.756Z,2.93
2018-01-10T06:11:52.745Z,2.93
2018-01-10T06:12:52.727Z,2.92
2018-01-10T06:13:52.713Z,2.90
2018-01-10T06:14:52.704Z,2.97
2018-01-10T06:15:52.686Z,2.97
2018-01-10T06:16:52.677Z,2.95
2018-01-10T06:17:52.663Z,3.00
2018-01-10T06:18:52.642Z,2.97
2018-01-10T06:19:52.631Z,2.99
2018-01-10T06:20:52.617Z,3.00
2018-01-10T06:21:52.602Z,2.95
2018-01-10T06:22:52.586Z,2.96
2018-01-10T06:23:52.574Z,2.84
2018-01-10T06:24:52.561Z,2.85
2018-01-10T06:25:52.547Z,2.87
2018-01-10T06:26:52.533Z,2.85
2018-01-10T06:27:52.518Z,2.85
2018-01-10T06:28:52.504Z,2.79
2018-01-10T06:29:52.492Z,2.77
2018-01-10T06:30:52.478Z,2.75
2018-01-10T06:31:52.459Z,2.75
2018-01-10T06:32:52.447Z,2.77
2018-01-10T06:33:52.437Z,2.78
2018-01-10T06:34:52.426Z,2.81
2018-01-10T06:35:52.405Z,2.77
2018-01-10T06:36:52.387Z,2.69
2018-01-10T06:37:52.378Z,2.69
2018-01-10T06:38:52.364Z,2.74
2018-01-10T06:39:52.349Z,2.79
2018-01-10T06:40:52.339Z,2.72
2018-01-10T06:41:52.317Z,2.71
2018-01-10T06:42:52.308Z,2.72
2018-01-10T06:43:52.292Z,2.77
2018-01-10T06:44:52.280Z,2.72
2018-01-10T06:45:52.266Z,2.75
2018-01-10T06:46:52.249Z,2.75
2018-01-10T06:47:52.236Z,2.63
2018-01-10T06:48:52.223Z,2.63
2018-01-10T06:49:52.215Z,2.64
2018-01-10T06:50:52.197Z,2.54
2018-01-10T06:51:52.183Z,2.69
2018-01-10T06:52:52.169Z,2.66
2018-01-10T06:53:52.153Z,2.64
2018-01-10T06:54:52.145Z,2.59
2018-01-10T06:55:52.122Z,2.69
2018-01-10T06:56:52.112Z,2.64
2018-01-10T06:57:52.096Z,2.72
2018-01-10T06:58:52.080Z,2.67
2018-01-10T06:59:52.068Z,2.77
2018-01-10T07:00:52.054Z,2.66
2018-01-10T07:01:52.044Z,2.64
2018-01-10T07:02:52.027Z,2.66
2018-01-10T07:03:52.007Z,2.72
2018-01-10T07:04:51.995Z,2.71
2018-01-10T07:05:51.985Z,2.72
2018-01-10T07:06:51.966Z,2.61
2018-01-10T07:07:51.953Z,2.66
2018-01-10T07:08:51.942Z,2.63
2018-01-10T07:09:51.928Z,2.52
2018-01-10T07:10:51.910Z,2.63
2018-01-10T07:11:51.899Z,2.64
2018-01-10T07:12:51.883Z,2.63
2018-01-10T07:13:51.867Z,2.75
2018-01-10T07:14:51.859Z,2.75
2018-01-10T07:15:51.844Z,2.72
2018-01-10T07:16:51.824Z,2.74
2018-01-10T07:17:51.812Z,2.79
2018-01-10T07:18:51.795Z,2.79
2018-01-10T07:19:51.781Z,2.79
2018-01-10T07:20:51.768Z,2.74
2018-01-10T07:21:51.753Z,2.77
2018-01-10T07:22:51.743Z,2.82
2018-01-10T07:23:51.726Z,2.77
2018-01-10T07:24:51.716Z,2.75
2018-01-10T07:25:51.701Z,2.81
2018-01-10T07:26:51.686Z,2.78
2018-01-10T07:27:51.672Z,2.78
2018-01-10T07:28:51.657Z,2.85
2018-01-10T07:29:51.632Z,2.87
2018-01-10T07:30:51.635Z,2.85
2018-01-10T07:31:51.610Z,2.85
2018-01-10T07:32:51.597Z,2.85
2018-01-10T07:33:51.582Z,2.93
2018-01-10T07:34:51.572Z,2.81
2018-01-10T07:35:51.562Z,2.87
2018-01-10T07:36:51.540Z,2.92
2018-01-10T07:37:51.526Z,2.97
2018-01-10T07:38:51.515Z,2.93
2018-01-10T07:39:51.500Z,2.89
2018-01-10T07:40:51.484Z,2.93
2018-01-10T07:41:51.471Z,2.93
2018-01-10T07:42:51.460Z,2.92
2018-01-10T07:43:51.438Z,3.00
2018-01-10T07:44:51.429Z,3.05
2018-01-10T07:45:51.412Z,3.00
2018-01-10T07:46:51.399Z,2.97
2018-01-10T07:47:51.387Z,3.08
2018-01-10T07:48:51.372Z,3.02
2018-01-10T07:49:51.355Z,3.05
2018-01-10T07:50:51.342Z,3.08
2018-01-10T07:51:51.324Z,3.10
2018-01-10T07:52:51.312Z,3.05
2018-01-10T07:53:51.296Z,3.11
2018-01-10T07:54:51.294Z,3.06
2018-01-10T07:55:51.270Z,3.10
2018-01-10T07:56:51.257Z,3.13
2018-01-10T07:57:51.243Z,3.05
2018-01-10T07:58:51.230Z,3.10
2018-01-10T07:59:51.221Z,3.03
2018-01-10T08:00:51.201Z,3.08
2018-01-10T08:01:51.186Z,3.11
2018-01-10T08:02:51.176Z,3.08
2018-01-10T08:03:51.156Z,3.14
2018-01-10T08:04:51.142Z,3.14
2018-01-10T08:05:51.130Z,3.17
2018-01-10T08:06:51.114Z,3.20
2018-01-10T08:07:51.125Z,3.15
2018-01-10T08:08:51.085Z,3.15
2018-01-10T08:09:51.075Z,3.21
2018-01-10T08:10:51.062Z,3.23
2018-01-10T08:11:51.042Z,3.21
2018-01-10T08:12:51.030Z,3.17
2018-01-10T08:13:51.016Z,3.14
2018-01-10T08:14:51.005Z,3.06
2018-01-10T08:15:50.988Z,3.10
2018-01-10T08:16:50.973Z,3.06
2018-01-10T08:17:50.959Z,3.03
2018-01-10T08:18:50.942Z,3.10
2018-01-10T08:19:50.928Z,3.06
2018-01-10T08:20:50.917Z,3.08
2018-01-10T08:21:50.901Z,3.11
2018-01-10T08:22:50.890Z,3.11
2018-01-10T08:23:50.873Z,3.08
2018-01-10T08:24:50.859Z,3.13
2018-01-10T08:25:50.850Z,3.05
2018-01-10T08:26:50.832Z,3.11
2018-01-10T08:27:50.815Z,3.06
2018-01-10T08:28:50.805Z,3.14
2018-01-10T08:29:50.792Z,3.14
2018-01-10T08:30:50.776Z,3.20
2018-01-10T08:31:50.762Z,3.21
2018-01-10T08:32:50.743Z,3.18
2018-01-10T08:33:50.740Z,3.17
2018-01-10T08:34:50.717Z,3.26
2018-01-10T08:35:50.710Z,3.24
2018-01-10T08:36:50.696Z,3.18
2018-01-10T08:37:50.677Z,3.23
2018-01-10T08:38:50.670Z,3.20
2018-01-10T08:39:50.646Z,3.17
2018-01-10T08:40:50.638Z,3.23
2018-01-10T08:41:50.618Z,3.20
2018-01-10T08:42:50.603Z,3.32
2018-01-10T08:43:50.591Z,3.32
2018-01-10T08:44:50.578Z,3.43
2018-01-10T08:45:50.566Z,3.40
2018-01-10T08:46:50.553Z,3.55
2018-01-10T08:47:50.537Z,3.62
2018-01-10T08:48:50.520Z,3.76
2018-01-10T08:49:50.511Z,3.84
2018-01-10T08:50:50.496Z,4.02
2018-01-10T08:51:50.476Z,4.05
2018-01-10T08:52:50.462Z,4.16
2018-01-10T08:53:50.446Z,4.40
2018-01-10T08:54:50.437Z,4.47
2018-01-10T08:55:50.424Z,4.55
2018-01-10T08:56:50.410Z,4.73
2018-01-10T08:57:50.393Z,4.75
2018-01-10T08:58:50.382Z,4.97
2018-01-10T08:59:50.366Z,5.10
2018-01-10T09:00:50.345Z,5.30
2018-01-10T09:01:50.337Z,5.35
2018-01-10T09:02:50.326Z,5.40
2018-01-10T09:03:50.310Z,5.53
2018-01-10T09:04:50.299Z,5.54
2018-01-10T09:05:50.286Z,5.67
2018-01-10T09:06:50.274Z,5.67
2018-01-10T09:07:50.259Z,5.76
2018-01-10T09:08:50.247Z,5.81
2018-01-10T09:09:50.232Z,5.68
2018-01-10T09:10:50.219Z,5.72
2018-01-10T09:11:50.202Z,5.68
2018-01-10T09:12:50.194Z,5.75
2018-01-10T09:13:50.179Z,5.79
2018-01-10T09:14:50.166Z,5.78
2018-01-10T09:15:50.152Z,5.85
2018-01-10T09:16:50.138Z,5.96
2018-01-10T09:17:50.126Z,5.93
2018-01-10T09:18:50.118Z,6.03
2018-01-10T09:19:50.099Z,6.01
2018-01-10T09:20:50.089Z,6.04
2018-01-10T09:21:50.070Z,6.12
2018-01-10T09:22:50.057Z,6.22
2018-01-10T09:23:50.045Z,6.40
2018-01-10T09:24:50.026Z,6.56
2018-01-10T09:25:50.028Z,6.64
2018-01-10T09:26:50.010Z,6.84
2018-01-10T09:27:49.994Z,6.95
2018-01-10T09:28:49.981Z,7.02
2018-01-10T09:29:49.969Z,6.97
2018-01-10T09:30:49.951Z,7.10
2018-01-10T09:31:49.945Z,7.17
2018-01-10T09:32:49.936Z,7.27
2018-01-10T09:33:49.924Z,7.35
2018-01-10T09:34:49.905Z,7.48
2018-01-10T09:35:49.896Z,7.61
2018-01-10T09:36:49.884Z,7.53
2018-01-10T09:37:49.869Z,7.63
2018-01-10T09:38:49.854Z,7.79
2018-01-10T09:39:49.844Z,7.92
2018-01-10T09:40:49.834Z,7.83
2018-01-10T09:41:49.826Z,7.93
2018-01-10T09:42:49.804Z,7.57
2018-01-10T09:43:49.798Z,7.43
2018-01-10T09:44:49.788Z,7.45
2018-01-10T09:45:49.771Z,7.57
2018-01-10T09:46:49.759Z,7.67
2018-01-10T09:47:49.745Z,7.75
2018-01-10T09:48:49.734Z,7.85
2018-01-10T09:49:49.757Z,7.79
2018-01-10T09:50:49.709Z,7.89
2018-01-10T09:51:49.695Z,7.98
2018-01-10T09:52:49.684Z,7.93
2018-01-10T09:53:49.677Z,7.98
2018-01-10T09:54:49.668Z,8.11
2018-01-10T09:55:49.658Z,8.12
2018-01-10T09:56:49.646Z,8.16
2018-01-10T09:57:49.629Z,8.30
2018-01-10T09:58:49.616Z,8.41
2018-01-10T09:59:49.608Z,8.53
2018-01-10T10:00:49.598Z,8.26
2018-01-10T10:01:49.582Z,8.23
2018-01-10T10:02:49.570Z,8.33
2018-01-10T10:03:49.559Z,8.34
2018-01-10T10:04:49.547Z,8.59
2018-01-10T10:05:49.535Z,8.71
2018-01-10T10:06:49.528Z,8.99
2018-01-10T10:07:49.514Z,9.21
2018-01-10T10:08:49.507Z,9.43
2018-01-10T10:09:49.486Z,9.56
2018-01-10T10:10:49.483Z,9.61
2018-01-10T10:11:49.467Z,9.60
2018-01-10T10:12:49.455Z,9.65
2018-01-10T10:13:49.451Z,9.65
2018-01-10T10:14:49.436Z,9.76
2018-01-10T10:15:49.420Z,9.75
2018-01-10T10:16:49.413Z,9.69
2018-01-10T10:17:49.399Z,9.74
2018-01-10T10:18:49.390Z,9.79
2018-01-10T10:19:49.385Z,9.64
2018-01-10T10:20:49.369Z,9.64
2018-01-10T10:21:49.354Z,9.71
2018-01-10T10:22:49.356Z,9.83
2018-01-10T10:23:49.336Z,9.93
2018-01-10T10:24:49.325Z,9.87
2018-01-10T10:25:49.314Z,9.79
2018-01-10T10:26:49.301Z,9.84
2018-01-10T10:27:49.293Z,9.78
2018-01-10T10:28:49.284Z,9.76
2018-01-10T10:29:49.270Z,9.64
2018-01-10T10:30:49.261Z,9.50
2018-01-10T10:31:49.254Z,9.35
2018-01-10T10:32:49.236Z,9.31
2018-01-10T10:33:49.228Z,9.28
2018-01-10T10:34:49.217Z,9.18
2018-01-10T10:35:49.213Z,9.11
2018-01-10T10:36:49.200Z,9.08
2018-01-10T10:37:49.187Z,9.20
2018-01-10T10:38:49.175Z,9.13
2018-01-10T10:39:49.167Z,9.18
2018-01-10T10:40:49.154Z,9.18
2018-01-10T10:41:49.144Z,9.23
2018-01-10T10:42:49.132Z,9.26
2018-01-10T10:43:49.120Z,9.39
2018-01-10T10:44:49.111Z,9.90
2018-01-10T10:45:49.104Z,10.38
2018-01-10T10:46:49.090Z,10.88
2018-01-10T10:47:49.079Z,11.54
2018-01-10T10:48:49.076Z,11.58
2018-01-10T10:49:49.057Z,11.75
2018-01-10T10:50:49.047Z,11.60
2018-01-10T10:51:49.036Z,11.36
2018-01-10T10:52:49.029Z,11.22
2018-01-10T10:53:49.019Z,11.22
2018-01-10T10:54:49.011Z,11.07
2018-01-10T10:55:48.997Z,11.17
2018-01-10T10:56:48.984Z,11.22
2018-01-10T10:57:48.978Z,11.22
2018-01-10T10:58:48.965Z,11.02
2018-01-10T10:59:48.956Z,10.79
2018-01-10T11:00:48.947Z,10.85
2018-01-10T11:01:48.931Z,10.73
2018-01-10T11:02:48.928Z,10.88
2018-01-10T11:03:48.916Z,10.88
2018-01-10T11:04:48.908Z,10.79
2018-01-10T11:05:48.896Z,10.84
2018-01-10T11:06:48.886Z,10.91
2018-01-10T11:07:48.875Z,10.82
2018-01-10T11:08:48.867Z,11.04
2018-01-10T11:09:48.854Z,11.10
2018-01-10T11:10:48.846Z,11.19
2018-01-10T11:11:48.836Z,11.35
2018-01-10T11:12:48.823Z,11.49
2018-01-10T11:13:48.818Z,11.62
2018-01-10T11:14:48.804Z,11.64
2018-01-10T11:15:48.800Z,11.52
2018-01-10T11:16:48.792Z,11.46
2018-01-10T11:17:48.784Z,11.25
2018-01-10T11:18:48.771Z,11.09
2018-01-10T11:19:48.756Z,10.91
2018-01-10T11:20:48.750Z,10.78
2018-01-10T11:21:48.737Z,10.71
2018-01-10T11:22:48.732Z,10.60
2018-01-10T11:23:48.718Z,10.26
2018-01-10T11:24:48.710Z,10.23
2018-01-10T11:25:48.701Z,10.40
2018-01-10T11:26:48.689Z,10.73
2018-01-10T11:27:48.687Z,11.03
2018-01-10T11:28:48.674Z,11.35
2018-01-10T11:29:48.663Z,11.60
2018-01-10T11:30:48.655Z,11.95
2018-01-10T11:31:48.650Z,11.99
2018-01-10T11:32:48.633Z,12.12
2018-01-10T11:33:48.629Z,12.28
2018-01-10T11:34:48.618Z,12.28
2018-01-10T11:35:48.606Z,12.37
2018-01-10T11:36:48.598Z,12.31
2018-01-10T11:37:48.586Z,12.32
2018-01-10T11:38:48.574Z,12.23
2018-01-10T11:39:48.567Z,12.14
2018-01-10T11:40:48.562Z,12.10
2018-01-10T11:41:48.550Z,12.13
2018-01-10T11:42:48.543Z,12.20
2018-01-10T11:43:48.533Z,12.28
2018-01-10T11:44:48.544Z,12.47
2018-01-10T11:45:48.517Z,12.54
2018-01-10T11:46:48.511Z,12.56
2018-01-10T11:47:48.503Z,12.57
2018-01-10T11:48:48.494Z,12.64
2018-01-10T11:49:48.480Z,12.57
2018-01-10T11:50:48.475Z,12.49
2018-01-10T11:51:48.465Z,12.57
2018-01-10T11:52:48.454Z,12.31
2018-01-10T11:53:48.443Z,12.32
2018-01-10T11:54:48.459Z,12.42
2018-01-10T11:55:48.424Z,12.53
2018-01-10T11:56:48.416Z,12.52
2018-01-10T11:57:48.407Z,12.37
2018-01-10T11:58:48.399Z,12.14
2018-01-10T11:59:48.390Z,12.20
2018-01-10T12:00:48.378Z,12.28
2018-01-10T12:01:48.374Z,12.46
2018-01-10T12:02:48.367Z,12.53
2018-01-10T12:03:48.359Z,12.72
2018-01-10T12:04:48.345Z,12.82
2018-01-10T12:05:48.338Z,13.01
2018-01-10T12:06:48.328Z,13.07
2018-01-10T12:07:48.330Z,13.15
2018-01-10T12:08:48.315Z,12.96
2018-01-10T12:09:48.303Z,12.85
2018-01-10T12:10:48.296Z,12.75
2018-01-10T12:11:48.280Z,12.72
2018-01-10T12:12:48.282Z,12.75
2018-01-10T12:13:48.270Z,12.72
2018-01-10T12:14:48.267Z,12.89
2018-01-10T12:15:48.252Z,12.95
2018-01-10T12:16:48.242Z,12.83
2018-01-10T12:17:48.237Z,13.00
2018-01-10T12:18:48.225Z,12.86
2018-01-10T12:19:48.220Z,13.04
2018-01-10T12:20:48.211Z,13.10
2018-01-10T12:21:48.202Z,13.12
2018-01-10T12:22:48.190Z,13.17
2018-01-10T12:23:48.185Z,13.15
2018-01-10T12:24:48.179Z,13.08
2018-01-10T12:25:48.170Z,13.07
2018-01-10T12:26:48.157Z,13.03
2018-01-10T12:27:48.152Z,13.14
2018-01-10T12:28:48.142Z,13.04
2018-01-10T12:29:48.136Z,12.95
2018-01-10T12:30:48.124Z,12.95
2018-01-10T12:31:48.112Z,12.92
2018-01-10T12:32:48.107Z,12.85
2018-01-10T12:33:48.101Z,12.87
2018-01-10T12:34:48.096Z,12.96
2018-01-10T12:35:48.081Z,12.90
2018-01-10T12:36:48.080Z,12.90
2018-01-10T12:37:48.069Z,12.89
2018-01-10T12:38:48.056Z,13.00
2018-01-10T12:39:48.052Z,13.07
2018-01-10T12:40:48.039Z,13.20
2018-01-10T12:41:48.031Z,13.17
2018-01-10T12:42:48.026Z,13.10
2018-01-10T12:43:48.015Z,12.89
2018-01-10T12:44:48.008Z,12.85
2018-01-10T12:45:48.005Z,12.74
2018-01-10T12:46:47.991Z,12.65
2018-01-10T12:47:47.983Z,12.62
2018-01-10T12:48:47.969Z,12.56
2018-01-10T12:49:47.972Z,12.47
2018-01-10T12:50:47.959Z,12.42
2018-01-10T12:51:47.953Z,12.34
2018-01-10T12:52:47.940Z,12.28
2018-01-10T12:53:47.932Z,12.17
2018-01-10T12:54:47.926Z,12.13
2018-01-10T12:55:47.915Z,12.14
2018-01-10T12:56:47.908Z,12.29
2018-01-10T12:57:47.900Z,12.34
2018-01-10T12:58:47.890Z,12.27
2018-01-10T12:59:47.878Z,12.37
2018-01-10T13:00:47.871Z,12.46
2018-01-10T13:01:47.864Z,12.54
2018-01-10T13:02:47.855Z,12.75
2018-01-10T13:03:47.848Z,12.82
2018-01-10T13:04:47.838Z,12.90
2018-01-10T13:05:47.825Z,12.79
2018-01-10T13:06:47.832Z,12.82
2018-01-10T13:07:47.813Z,12.70
2018-01-10T13:08:47.807Z,12.72
2018-01-10T13:09:47.799Z,12.77
2018-01-10T13:10:47.788Z,12.86
2018-01-10T13:11:47.778Z,12.57
2018-01-10T13:12:47.771Z,12.54
2018-01-10T13:13:47.762Z,12.47